Vandenberg Air Force Base Lompoc US
ICAO: KVBG
IATA: VBG
Category: Large
Scheduled Services: No

Elevation: 369 ft
TransAlt. 18000 ft.

Airport Communications:
SANTA BARB APP/DEP:124.15
COMD POST:31.1
ATIS:133.125
CTAF:124.95
GND/CLNC DEL:121.75
RANGE CON:121.4
PMSV METRO:34.24
PTD:126.2
TWR:124.95

KVBG Zoom In..

If you have problems with the map follow the link
https://www.worldairports.se/pages/airport.php?
ICAO=KVBG

Runways:

(A) RW 12 length 15000 ft width 200 ft
ILS 110.10 / hdg 122

(B) RW 30 length 15000 ft width 200 ft
ILS 110.10 / hdg 302

Location; KVBG
Day. 10 / Time. 01.58 Zulu
* Altimeter: 30.12
* Temperature: 13° c. 55.4°f.
* Wind from: 360° Speed 12 kn.
Dewpoint: 12° c.
Visibility: 8 Statute Miles.
Clouds: Clear (automated report).

KVBG 100158Z AUTO 36012KT 8SM CLR 13/12 A3012 RMK AO2 SLP203 T01260116


Wind From 360°
Speed 12 kn.

 
 
jpsmedia worldairports.se 2019   terms of use